Time;durP1;ratioP1;P1;durP2;ratioP2;P2;SDS_P1;SDS_P2;PMS_P1;PMS_P2;Temp;Humidity;BMP_temperature;BMP_pressure;BME280_temperature;BME280_humidity;BME280_pressure;Samples;Min_cycle;Max_cycle;Signal;HPM_P1;HPM_P2
2021/12/23 00:00:55;;;;;;;11.73;5.95;;;;;;;-4.14;64.58;95250.78;5052806;28;20028;-79
2021/12/23 00:03:20;;;;;;;13.32;6.22;;;;;;;-4.11;64.88;95258.00;5051895;28;20350;-79
2021/12/23 00:05:46;;;;;;;10.82;5.95;;;;;;;-4.19;64.46;95242.44;5052685;28;20040;-80
2021/12/23 00:08:11;;;;;;;12.10;5.72;;;;;;;-4.03;64.57;95245.53;5052738;28;20032;-79
2021/12/23 00:10:37;;;;;;;12.32;6.90;;;;;;;-4.04;64.36;95249.31;5052664;28;20064;-79
2021/12/23 00:13:03;;;;;;;14.80;6.80;;;;;;;-4.00;64.29;95247.44;5052794;28;20455;-79
2021/12/23 00:15:50;;;;;;;12.90;7.18;;;;;;;-3.98;64.01;95244.41;5053052;28;20461;-80
2021/12/23 00:18:45;;;;;;;11.73;6.55;;;;;;;-4.15;64.93;95243.22;5052778;28;20470;-78
2021/12/23 00:23:58;;;;;;;12.80;6.38;;;;;;;-4.32;64.40;95242.78;5053087;28;20478;-78
2021/12/23 00:26:24;;;;;;;11.75;5.97;;;;;;;-4.20;64.36;95243.56;5053185;28;20388;-80
2021/12/23 00:28:51;;;;;;;12.13;6.03;;;;;;;-4.23;64.07;95252.28;5052515;28;20029;-78
2021/12/23 00:31:17;;;;;;;11.02;4.93;;;;;;;-4.34;63.75;95252.97;5052589;28;20481;-79
2021/12/23 00:33:44;;;;;;;13.88;5.75;;;;;;;-4.16;62.97;95258.38;5052539;28;20053;-79
2021/12/23 00:36:11;;;;;;;10.88;5.70;;;;;;;-4.03;63.09;95252.75;5052965;28;20436;-79
2021/12/23 00:38:46;;;;;;;10.93;5.65;;;;;;;-4.04;62.61;95254.63;5052482;28;20033;-80
2021/12/23 00:41:13;;;;;;;10.05;5.28;;;;;;;-3.98;62.23;95261.09;5053299;28;20320;-80
2021/12/23 00:43:39;;;;;;;11.13;5.22;;;;;;;-4.01;62.34;95264.47;5052188;28;20090;-80
2021/12/23 00:46:04;;;;;;;11.65;5.07;;;;;;;-4.06;62.14;95259.56;5052673;28;20029;-79
2021/12/23 00:48:30;;;;;;;12.82;5.63;;;;;;;-3.93;61.92;95257.31;5052458;28;20524;-79
2021/12/23 00:50:56;;;;;;;8.40;4.63;;;;;;;-3.91;61.39;95258.47;5052541;28;20474;-79
2021/12/23 00:53:23;;;;;;;8.52;5.28;;;;;;;-3.98;61.56;95263.75;5056774;28;20037;-79
2021/12/23 00:55:54;;;;;;;10.30;5.53;;;;;;;-3.81;61.35;95250.91;5066383;28;20048;-79
2021/12/23 00:58:22;;;;;;;8.43;5.20;;;;;;;-3.86;60.68;95251.28;5069995;28;20039;-79
2021/12/23 01:00:49;;;;;;;10.15;5.18;;;;;;;-3.70;61.00;95250.94;5066254;28;20078;-80
2021/12/23 01:03:16;;;;;;;14.65;6.07;;;;;;;-3.62;60.58;95239.97;5063278;28;20039;-79
2021/12/23 01:05:42;;;;;;;11.52;5.97;;;;;;;-3.91;61.82;95231.19;5062521;28;20031;-79
2021/12/23 01:08:08;;;;;;;10.65;5.30;;;;;;;-3.78;60.68;95234.97;5062935;28;20427;-79
2021/12/23 01:10:35;;;;;;;12.05;5.28;;;;;;;-3.88;61.54;95227.03;5064109;28;20053;-79
2021/12/23 01:13:03;;;;;;;13.93;5.80;;;;;;;-3.72;61.35;95231.97;5065295;28;20024;-79
2021/12/23 01:18:11;;;;;;;9.85;5.65;;;;;;;-3.66;61.06;95236.53;5064753;28;20028;-78
2021/12/23 01:20:40;;;;;;;11.10;6.35;;;;;;;-3.85;61.75;95231.56;5061379;28;20454;-79
2021/12/23 01:23:08;;;;;;;13.27;6.30;;;;;;;-3.70;61.39;95241.06;5065241;28;20187;-79
2021/12/23 01:25:37;;;;;;;17.55;7.43;;;;;;;-3.59;60.45;95241.09;5065430;28;20103;-78
2021/12/23 01:28:04;;;;;;;19.60;9.18;;;;;;;-4.49;64.19;95235.47;5065203;28;20033;-79
2021/12/23 01:30:30;;;;;;;30.17;11.25;;;;;;;-5.13;66.66;95226.00;5067079;28;20111;-77
2021/12/23 01:32:57;;;;;;;21.85;10.13;;;;;;;-4.95;67.39;95224.25;5077429;28;20036;-77
2021/12/23 01:35:25;;;;;;;26.10;11.25;;;;;;;-5.14;67.72;95225.25;5078425;28;20060;-77
2021/12/23 01:37:51;;;;;;;20.38;9.95;;;;;;;-5.18;68.52;95228.97;5078950;28;20021;-79
2021/12/23 01:40:19;;;;;;;18.83;9.50;;;;;;;-5.35;69.62;95225.81;5078046;28;20050;-78
2021/12/23 01:42:45;;;;;;;25.95;10.48;;;;;;;-5.15;68.89;95228.28;5078552;28;20009;-76
2021/12/23 01:45:14;;;;;;;27.00;11.27;;;;;;;-5.38;70.39;95221.28;5077990;28;20462;-77
2021/12/23 01:47:40;;;;;;;29.85;11.68;;;;;;;-5.10;69.27;95217.31;5078110;28;20025;-78
2021/12/23 01:50:07;;;;;;;23.52;11.23;;;;;;;-5.13;69.61;95210.88;5077898;28;20035;-77
2021/12/23 01:52:33;;;;;;;23.88;12.50;;;;;;;-5.33;70.37;95207.72;5077772;28;20052;-78
2021/12/23 01:54:58;;;;;;;25.40;12.05;;;;;;;-5.24;70.58;95199.44;5076968;28;20020;-78
2021/12/23 01:57:27;;;;;;;28.20;13.23;;;;;;;-5.35;70.70;95209.94;5076877;28;20032;-78
2021/12/23 01:59:53;;;;;;;27.23;14.35;;;;;;;-5.32;70.76;95216.41;5072013;28;20036;-79
2021/12/23 02:02:18;;;;;;;30.20;13.93;;;;;;;-5.21;71.18;95219.13;5076429;28;20021;-78
2021/12/23 02:04:44;;;;;;;28.73;13.73;;;;;;;-5.48;71.82;95219.28;5072341;28;20087;-79
2021/12/23 02:07:09;;;;;;;33.38;13.30;;;;;;;-5.33;71.49;95218.28;5065851;28;20358;-78
2021/12/23 02:09:35;;;;;;;27.27;13.63;;;;;;;-5.37;71.46;95225.44;5055840;28;20099;-79
2021/12/23 02:12:00;;;;;;;27.30;12.75;;;;;;;-5.14;71.46;95232.41;5054701;28;20060;-79
2021/12/23 02:14:26;;;;;;;31.70;13.82;;;;;;;-5.86;73.01;95211.41;5054088;28;20029;-79
2021/12/23 02:16:51;;;;;;;29.70;12.95;;;;;;;-6.06;74.93;95231.22;5054735;28;20021;-79
2021/12/23 02:19:19;;;;;;;30.30;12.95;;;;;;;-5.56;73.39;95239.66;5055118;28;20036;-79
2021/12/23 02:21:46;;;;;;;28.58;13.30;;;;;;;-5.89;74.47;95243.88;5054777;28;20040;-79
2021/12/23 02:24:12;;;;;;;27.77;13.18;;;;;;;-5.66;73.70;95237.66;5055054;28;20059;-79
2021/12/23 02:26:39;;;;;;;30.75;14.05;;;;;;;-5.50;72.93;95234.78;5054661;28;20048;-79
2021/12/23 02:29:05;;;;;;;32.92;14.00;;;;;;;-5.98;75.23;95225.66;5054004;28;20343;-79
2021/12/23 02:31:30;;;;;;;35.97;15.95;;;;;;;-5.94;74.51;95239.63;5055012;28;20105;-79
2021/12/23 02:33:56;;;;;;;36.42;14.23;;;;;;;-6.00;76.21;95235.06;5054567;28;20463;-79
2021/12/23 02:36:22;;;;;;;30.42;14.35;;;;;;;-5.68;75.37;95224.03;5054281;28;20426;-78
2021/12/23 02:38:48;;;;;;;34.83;14.98;;;;;;;-5.70;74.04;95227.06;5054299;28;20066;-79
2021/12/23 02:41:13;;;;;;;32.90;13.73;;;;;;;-6.07;76.05;95214.59;5054209;28;20032;-78
2021/12/23 02:43:39;;;;;;;31.27;13.75;;;;;;;-5.81;75.15;95231.44;5054750;28;20410;-79
2021/12/23 02:46:04;;;;;;;29.77;14.57;;;;;;;-5.47;73.90;95234.03;5054818;28;20020;-79
2021/12/23 02:48:37;;;;;;;29.55;12.90;;;;;;;-5.89;74.54;95229.84;5054963;28;20029;-79
2021/12/23 02:51:09;;;;;;;29.98;13.77;;;;;;;-6.02;75.26;95224.84;5056934;28;20052;-78
2021/12/23 02:53:35;;;;;;;;;;;;;;;-5.81;74.81;95228.81;5054928;28;20090;-79
2021/12/23 02:56:07;;;;;;;28.25;12.77;;;;;;;-5.84;75.04;95217.06;5053772;28;19913;-78
2021/12/23 02:58:33;;;;;;;30.60;13.43;;;;;;;-6.10;76.02;95231.19;5054028;28;20407;-79
2021/12/23 03:01:01;;;;;;;36.78;14.80;;;;;;;-6.41;77.44;95217.22;5054046;28;20060;-78
2021/12/23 03:03:27;;;;;;;29.38;14.45;;;;;;;-6.45;78.60;95216.41;5054326;28;20024;-79
2021/12/23 03:05:55;;;;;;;27.20;13.52;;;;;;;-6.45;78.12;95211.13;5053796;28;20021;-78
2021/12/23 03:08:32;;;;;;;34.75;14.02;;;;;;;-6.73;79.45;95207.03;5053971;28;20013;-78
2021/12/23 03:10:59;;;;;;;41.85;15.85;;;;;;;-6.46;77.97;95205.09;5053670;28;20132;-78
2021/12/23 03:13:25;;;;;;;31.58;14.20;;;;;;;-6.55;78.29;95212.53;5053543;28;20025;-79
2021/12/23 03:15:51;;;;;;;36.08;14.98;;;;;;;-6.24;76.99;95204.59;5053460;28;20018;-79
2021/12/23 03:18:16;;;;;;;35.10;14.55;;;;;;;-6.58;78.44;95205.34;5053455;28;20424;-79
2021/12/23 03:20:42;;;;;;;34.60;14.90;;;;;;;-6.82;79.17;95194.06;5053373;28;20029;-78
2021/12/23 03:23:09;;;;;;;45.90;16.52;;;;;;;-6.66;78.47;95201.84;5053316;28;20071;-78
2021/12/23 03:25:34;;;;;;;42.28;15.52;;;;;;;-6.76;79.71;95185.84;5052373;28;20477;-78
2021/12/23 03:28:00;;;;;;;36.00;15.18;;;;;;;-6.57;78.74;95209.50;5053378;28;20103;-79
2021/12/23 03:30:25;;;;;;;40.05;14.88;;;;;;;-6.63;78.54;95206.38;5053303;28;20068;-79
2021/12/23 03:32:51;;;;;;;35.88;14.57;;;;;;;-6.36;77.13;95208.25;5052794;28;20104;-79
2021/12/23 03:35:17;;;;;;;32.28;14.57;;;;;;;-6.65;78.80;95200.72;5053209;28;20538;-79
2021/12/23 03:37:44;;;;;;;30.42;13.15;;;;;;;-6.70;79.27;95208.94;5053091;28;20112;-79
2021/12/23 03:40:09;;;;;;;34.70;15.48;;;;;;;-6.76;79.92;95215.66;5053095;28;20036;-79
2021/12/23 03:42:35;;;;;;;34.28;15.30;;;;;;;-6.80;80.02;95212.97;5053320;28;20028;-79
2021/12/23 03:45:01;;;;;;;37.35;15.07;;;;;;;-6.62;78.50;95213.19;5052196;28;20391;-79
2021/12/23 03:47:27;;;;;;;38.30;14.93;;;;;;;-7.14;80.75;95204.97;5053517;28;20035;-79
2021/12/23 03:49:52;;;;;;;37.67;15.77;;;;;;;-6.83;80.33;95220.84;5053729;28;20025;-78
2021/12/23 03:52:18;;;;;;;41.50;16.30;;;;;;;-7.14;81.17;95214.75;5056359;28;20025;-78
2021/12/23 03:54:43;;;;;;;37.70;15.00;;;;;;;-7.07;81.48;95212.22;5055148;28;20363;-78
2021/12/23 03:57:09;;;;;;;36.75;16.63;;;;;;;-7.04;81.84;95214.13;5052314;28;20176;-78
2021/12/23 03:59:34;;;;;;;34.17;15.93;;;;;;;-6.83;81.34;95205.78;5052842;28;20028;-78
2021/12/23 04:02:00;;;;;;;37.90;15.88;;;;;;;-6.69;80.88;95207.09;5051731;28;20028;-77
2021/12/23 04:04:25;;;;;;;34.00;15.55;;;;;;;-6.66;79.26;95222.97;5052661;28;20047;-78
2021/12/23 04:06:51;;;;;;;35.50;16.10;;;;;;;-6.80;80.14;95212.97;5051777;28;20025;-78
2021/12/23 04:09:17;;;;;;;37.58;15.98;;;;;;;-6.67;80.03;95226.72;5052920;28;20351;-78
2021/12/23 04:11:43;;;;;;;37.55;16.00;;;;;;;-6.76;80.03;95218.31;5052598;28;20049;-78
2021/12/23 04:14:08;;;;;;;35.58;16.85;;;;;;;-6.65;79.38;95234.31;5053019;28;20108;-80
2021/12/23 04:16:35;;;;;;;39.95;17.05;;;;;;;-6.62;79.57;95223.78;5052695;28;20041;-79
2021/12/23 04:19:05;;;;;;;43.55;17.05;;;;;;;-6.71;79.61;95225.16;5052818;28;20044;-79
2021/12/23 04:21:31;;;;;;;39.58;18.55;;;;;;;-6.47;78.49;95232.63;5051912;28;20040;-78
2021/12/23 04:23:56;;;;;;;32.83;15.50;;;;;;;-6.52;78.57;95234.84;5052634;28;20560;-79
2021/12/23 04:26:22;;;;;;;34.25;16.60;;;;;;;-6.60;78.15;95241.16;5051629;28;20346;-79
2021/12/23 04:28:48;;;;;;;71.70;24.63;;;;;;;-6.57;78.01;95225.34;5052611;28;20448;-78
2021/12/23 04:31:16;;;;;;;41.97;18.10;;;;;;;-6.55;77.93;95228.38;5052526;28;20039;-79
2021/12/23 04:33:43;;;;;;;29.55;14.85;;;;;;;-6.54;77.90;95231.81;5052937;28;20425;-79
2021/12/23 04:36:09;;;;;;;27.25;13.52;;;;;;;-6.35;76.77;95230.91;5051469;28;20143;-79
2021/12/23 04:38:37;;;;;;;22.55;12.73;;;;;;;-6.48;76.74;95223.19;5052966;28;20473;-78
2021/12/23 04:41:02;;;;;;;23.15;11.60;;;;;;;-6.56;77.00;95231.38;5052989;28;20033;-78
2021/12/23 04:43:27;;;;;;;27.98;11.80;;;;;;;-6.33;76.51;95223.38;5052922;28;20040;-78
2021/12/23 04:45:53;;;;;;;25.20;11.10;;;;;;;-6.55;76.77;95228.38;5055945;28;20021;-80
2021/12/23 06:16:27;;;;;;;47.17;18.42;;;;;;;-6.97;79.72;95235.38;5032233;28;20419;-78
2021/12/23 06:18:52;;;;;;;39.72;16.17;;;;;;;-6.87;79.79;95239.28;5054733;28;20044;-79
2021/12/23 06:21:18;;;;;;;41.78;17.83;;;;;;;-6.27;77.33;95251.00;5054820;28;20036;-78
2021/12/23 06:23:44;;;;;;;39.90;16.45;;;;;;;-5.96;75.45;95256.97;5053841;28;20487;-78
2021/12/23 06:26:09;;;;;;;31.77;15.15;;;;;;;-6.28;75.98;95252.88;5054656;28;20028;-78
2021/12/23 06:28:35;;;;;;;32.83;16.10;;;;;;;-6.13;76.30;95250.41;5054396;28;20035;-78
2021/12/23 06:31:00;;;;;;;36.83;15.60;;;;;;;-5.79;74.74;95255.66;5054584;28;20035;-78
2021/12/23 06:33:26;;;;;;;44.85;20.13;;;;;;;-5.58;74.08;95251.72;5054556;28;20036;-78
2021/12/23 06:35:51;;;;;;;54.47;23.10;;;;;;;-5.52;73.25;95256.31;5054177;28;20025;-78
2021/12/23 06:38:17;;;;;;;49.40;22.27;;;;;;;-5.00;71.93;95253.72;5055068;28;20362;-78
2021/12/23 06:40:42;;;;;;;48.20;21.63;;;;;;;-5.29;71.79;95256.13;5054297;28;20378;-79
2021/12/23 06:43:08;;;;;;;51.92;21.60;;;;;;;-5.72;74.45;95245.16;5055162;28;20035;-79
2021/12/23 06:45:34;;;;;;;56.63;25.27;;;;;;;-5.29;74.20;95244.78;5060189;28;20031;-77
2021/12/23 06:48:00;;;;;;;62.08;29.73;;;;;;;-5.06;72.94;95244.56;5054574;28;20021;-79
2021/12/23 06:50:25;;;;;;;39.75;21.95;;;;;;;-5.11;73.58;95242.28;5054125;28;20025;-78
2021/12/23 06:52:51;;;;;;;38.42;19.00;;;;;;;-4.45;70.65;95252.16;5054131;28;20025;-79
2021/12/23 06:55:18;;;;;;;36.45;18.83;;;;;;;-4.51;70.69;95243.03;5053726;28;20025;-78
2021/12/23 06:57:43;;;;;;;32.90;16.77;;;;;;;-4.27;69.73;95247.72;5053657;28;20444;-79
2021/12/23 07:00:15;;;;;;;38.33;16.85;;;;;;;-4.00;68.77;95250.09;5054516;28;20097;-78
2021/12/23 07:02:42;;;;;;;29.75;15.38;;;;;;;-4.42;70.29;95240.81;5053883;28;20025;-76
2021/12/23 07:05:09;;;;;;;37.53;16.92;;;;;;;-4.20;69.97;95240.91;5053825;28;20017;-78
2021/12/23 07:10:22;;;;;;;34.30;17.45;;;;;;;-3.64;67.19;95254.72;5053689;28;20106;-77
2021/12/23 07:12:48;;;;;;;39.20;19.08;;;;;;;-3.30;65.69;95257.84;5054011;28;20021;-77
2021/12/23 07:15:14;;;;;;;36.13;16.13;;;;;;;-3.07;64.58;95251.38;5053589;28;20028;-79
2021/12/23 07:17:40;;;;;;;33.28;15.10;;;;;;;-2.67;63.69;95260.09;5053432;28;20045;-77
2021/12/23 07:20:06;;;;;;;30.40;15.30;;;;;;;-2.53;62.55;95259.31;5053677;28;20098;-78
2021/12/23 07:22:32;;;;;;;32.15;14.70;;;;;;;-2.89;63.34;95262.78;5053965;28;20150;-77
2021/12/23 07:24:57;;;;;;;35.90;16.33;;;;;;;-2.96;62.96;95262.78;5053620;28;20079;-75
2021/12/23 07:27:23;;;;;;;33.40;15.52;;;;;;;-2.76;62.67;95263.13;5053197;28;20013;-78
2021/12/23 07:29:48;;;;;;;32.03;16.58;;;;;;;-2.07;60.59;95271.75;5053107;28;20359;-77
2021/12/23 07:32:14;;;;;;;31.60;16.33;;;;;;;-2.04;60.35;95273.63;5053281;28;20024;-78
2021/12/23 07:34:42;;;;;;;37.63;15.70;;;;;;;-1.72;58.93;95285.28;5053604;28;20079;-80
2021/12/23 07:37:11;;;;;;;30.63;16.60;;;;;;;-1.76;58.42;95281.88;5053316;28;20485;-79
2021/12/23 07:39:38;;;;;;;31.92;17.10;;;;;;;-1.72;58.15;95278.06;5053082;28;20025;-78
2021/12/23 07:42:06;;;;;;;40.53;15.38;;;;;;;-1.56;57.84;95282.91;5053025;28;20485;-76
2021/12/23 07:44:32;;;;;;;35.25;15.50;;;;;;;-1.76;58.96;95279.22;5053094;28;20484;-80
2021/12/23 07:46:58;;;;;;;30.88;15.07;;;;;;;-1.21;56.16;95278.53;5051948;28;20020;-79
2021/12/23 07:49:24;;;;;;;25.33;13.32;;;;;;;-1.44;55.78;95281.72;5053016;28;20013;-80
2021/12/23 07:51:50;;;;;;;26.90;14.63;;;;;;;-0.84;55.34;95295.03;5053188;28;20446;-79
2021/12/23 07:54:16;;;;;;;36.63;15.30;;;;;;;-0.53;53.40;95279.91;5052164;28;20091;-81
2021/12/23 07:56:42;;;;;;;28.02;14.00;;;;;;;0.02;50.92;95282.78;5053015;28;20090;-82
2021/12/23 07:59:07;;;;;;;29.13;14.10;;;;;;;0.12;49.97;95276.59;5051923;28;20021;-76
2021/12/23 08:01:33;;;;;;;30.45;14.68;;;;;;;-0.21;50.80;95273.50;5052973;28;20025;-79
2021/12/23 08:03:58;;;;;;;27.67;14.30;;;;;;;0.09;49.20;95279.28;5053215;28;20021;-82
2021/12/23 08:06:24;;;;;;;32.95;14.70;;;;;;;0.04;50.11;95280.50;5052736;28;20056;-77
2021/12/23 08:08:49;;;;;;;28.70;14.55;;;;;;;0.53;47.25;95282.19;5051647;28;20028;-80
2021/12/23 08:11:15;;;;;;;26.13;13.90;;;;;;;0.58;48.30;95284.41;5052790;28;20036;-77
2021/12/23 08:13:41;;;;;;;25.75;14.52;;;;;;;0.31;48.18;95279.78;5052818;28;20074;-78
2021/12/23 08:16:06;;;;;;;33.97;15.05;;;;;;;1.00;46.57;95287.66;5052675;28;20466;-77
2021/12/23 08:18:32;;;;;;;26.05;14.75;;;;;;;1.65;45.61;95281.25;5053916;28;20123;-78
2021/12/23 08:20:59;;;;;;;29.33;14.43;;;;;;;2.16;43.76;95283.75;5059366;28;20025;-79
2021/12/23 08:23:25;;;;;;;21.88;12.43;;;;;;;2.93;42.69;95297.09;5059456;28;20466;-80
2021/12/23 08:25:51;;;;;;;25.23;12.57;;;;;;;2.62;42.30;95289.34;5059390;28;20083;-80
2021/12/23 08:28:16;;;;;;;33.78;14.38;;;;;;;3.35;41.24;95286.56;5059540;28;20052;-79
2021/12/23 08:30:42;;;;;;;23.58;13.75;;;;;;;2.88;41.41;95269.63;5059377;28;20032;-79
2021/12/23 08:33:08;;;;;;;24.20;13.65;;;;;;;3.42;40.89;95272.22;5059115;28;20037;-81
2021/12/23 08:35:34;;;;;;;23.20;13.95;;;;;;;3.66;39.23;95268.16;5059496;28;20033;-76
2021/12/23 08:38:00;;;;;;;29.95;14.48;;;;;;;4.28;38.63;95277.28;5058022;28;20021;-81
2021/12/23 08:40:27;;;;;;;22.15;13.05;;;;;;;3.83;38.68;95274.25;5059592;28;20036;-80
2021/12/23 08:42:56;;;;;;;27.73;14.02;;;;;;;3.41;38.71;95270.72;5059345;28;20355;-79
2021/12/23 08:45:23;;;;;;;31.20;14.10;;;;;;;4.47;38.54;95276.38;5059277;28;20108;-80
2021/12/23 08:47:49;;;;;;;24.58;13.27;;;;;;;4.67;36.98;95267.38;5059464;28;20100;-79
2021/12/23 08:50:16;;;;;;;24.20;13.85;;;;;;;4.75;36.39;95263.28;5059326;28;20096;-80
2021/12/23 08:52:42;;;;;;;30.27;13.52;;;;;;;5.36;35.79;95261.41;5059197;28;20029;-79
2021/12/23 08:55:10;;;;;;;32.55;14.55;;;;;;;5.24;35.77;95260.22;5059299;28;20046;-76
2021/12/23 08:57:35;;;;;;;28.58;13.18;;;;;;;3.66;37.50;95245.94;5059034;28;20021;-80
2021/12/23 09:00:07;;;;;;;28.30;14.32;;;;;;;3.77;38.56;95243.72;5059042;28;20082;-81
2021/12/23 09:02:32;;;;;;;30.30;15.50;;;;;;;5.35;36.21;95251.81;5059472;28;20017;-81
2021/12/23 09:04:58;;;;;;;22.45;12.30;;;;;;;5.98;33.52;95248.63;5059448;28;20111;-79
2021/12/23 09:07:23;;;;;;;25.25;12.35;;;;;;;5.95;34.11;95238.72;5059125;28;20032;-80
2021/12/23 09:09:51;;;;;;;25.67;13.63;;;;;;;5.66;33.59;95228.88;5060824;28;20424;-80
2021/12/23 09:12:18;;;;;;;23.40;13.77;;;;;;;6.09;33.14;95224.75;5063796;28;20098;-80
2021/12/23 09:14:43;;;;;;;23.75;13.25;;;;;;;7.49;31.16;95234.13;5067527;28;20053;-79
2021/12/23 09:17:10;;;;;;;26.10;15.20;;;;;;;7.37;31.86;95212.19;5072067;28;20037;-79
2021/12/23 09:19:35;;;;;;;25.67;15.02;;;;;;;7.37;31.27;95216.84;5073203;28;20028;-80
2021/12/23 09:22:01;;;;;;;25.23;14.25;;;;;;;6.36;33.20;95210.66;5074075;28;20025;-77
2021/12/23 09:24:27;;;;;;;28.55;14.15;;;;;;;6.41;32.57;95203.97;5077126;28;20033;-79
2021/12/23 09:27:00;;;;;;;23.38;12.57;;;;;;;5.04;33.08;95203.22;5069995;28;20017;-80
2021/12/23 09:34:56;;;;;;;35.13;14.30;;;;;;;6.33;33.14;95202.72;5056161;28;20116;-81
2021/12/23 09:37:24;;;;;;;28.67;14.07;;;;;;;5.24;33.43;95190.25;5055384;28;20334;-73
2021/12/23 09:39:54;;;;;;;30.63;13.32;;;;;;;4.87;34.42;95195.28;5056660;28;20028;-81
2021/12/23 09:42:24;;;;;;;22.30;13.55;;;;;;;6.80;31.60;95193.63;5064564;28;20102;-81
2021/12/23 09:44:50;;;;;;;24.55;12.75;;;;;;;6.66;31.17;95191.50;5060186;28;20427;-81
2021/12/23 09:47:18;;;;;;;26.80;13.05;;;;;;;5.52;32.62;95182.44;5055502;28;20020;-81
2021/12/23 09:49:45;;;;;;;22.80;12.85;;;;;;;4.36;34.59;95173.78;5055572;28;20457;-82
2021/12/23 09:52:11;;;;;;;25.00;13.27;;;;;;;3.60;36.15;95167.84;5055231;28;20028;-81
2021/12/23 09:54:41;;;;;;;24.88;13.43;;;;;;;3.50;36.12;95153.53;5055067;28;20513;-82
2021/12/23 09:57:07;;;;;;;21.60;12.55;;;;;;;5.18;34.37;95153.56;5055378;28;20065;-82
2021/12/23 09:59:32;;;;;;;21.33;12.60;;;;;;;6.28;31.24;95152.09;5054999;28;20122;-81
2021/12/23 10:01:58;;;;;;;21.98;13.73;;;;;;;5.28;32.46;95147.09;5055677;28;20025;-82
2021/12/23 10:04:23;;;;;;;23.15;12.73;;;;;;;6.76;30.93;95152.53;5054998;28;20036;-81
2021/12/23 10:06:51;;;;;;;32.55;13.48;;;;;;;7.61;29.98;95150.22;5054978;28;20020;-81
2021/12/23 10:09:35;;;;;;;22.17;13.98;;;;;;;4.57;33.30;95124.75;5054919;28;20114;-81
2021/12/23 10:31:02;;;;;;;36.63;15.98;;;;;;;4.01;36.22;95095.75;5054464;28;20025;-80
2021/12/23 10:33:42;;;;;;;25.17;13.27;;;;;;;5.72;32.60;95103.25;5054651;28;20039;-80
2021/12/23 10:38:49;;;;;;;27.67;14.10;;;;;;;6.81;30.38;95116.88;5054422;28;20438;-81
2021/12/23 10:41:26;;;;;;;32.58;14.52;;;;;;;6.60;31.34;95113.84;5053791;28;20488;-79
2021/12/23 10:44:04;;;;;;;31.17;14.75;;;;;;;5.94;32.35;95108.59;5053819;28;20064;-77
2021/12/23 10:46:31;;;;;;;29.48;14.98;;;;;;;5.38;32.92;95112.91;5054482;28;20106;-81
2021/12/23 10:49:41;;;;;;;27.42;15.50;;;;;;;5.21;33.05;95096.19;5053035;28;20025;-81
2021/12/23 10:52:18;;;;;;;31.60;17.50;;;;;;;4.02;35.46;95081.91;5052908;28;20044;-82
2021/12/23 11:00:18;;;;;;;35.58;17.60;;;;;;;2.49;38.78;95056.84;5054696;28;20032;-81
2021/12/23 11:03:05;;;;;;;32.97;16.35;;;;;;;3.04;37.93;95061.59;5054122;28;20496;-81
2021/12/23 11:05:36;;;;;;;44.03;18.23;;;;;;;2.64;39.05;95051.13;5054234;28;20033;-81
2021/12/23 11:08:34;;;;;;;35.33;18.17;;;;;;;2.83;39.20;95058.31;5054091;28;20017;-81
2021/12/23 11:41:51;;;;;;;40.92;17.25;;;;;;;0.86;44.04;95005.28;5054388;28;20446;-82
2021/12/23 11:44:17;;;;;;;36.08;17.65;;;;;;;0.87;43.55;95000.69;5055828;28;20064;-82
2021/12/23 11:49:12;;;;;;;39.28;17.08;;;;;;;1.15;44.42;94994.78;5054268;28;20033;-79
2021/12/23 11:54:08;;;;;;;32.92;18.08;;;;;;;1.01;44.36;94989.75;5053173;28;20061;-79
2021/12/23 11:56:38;;;;;;;31.13;17.30;;;;;;;0.91;43.57;94988.00;5053569;28;20090;-78
2021/12/23 11:59:05;;;;;;;39.67;17.85;;;;;;;0.94;44.68;94984.50;5054055;28;20025;-81
2021/12/23 12:01:45;;;;;;;38.60;16.95;;;;;;;1.05;44.80;94971.72;5054223;28;20051;-79
2021/12/23 12:04:13;;;;;;;36.55;18.00;;;;;;;1.11;45.09;94975.38;5054169;28;20071;-79
2021/12/23 12:06:47;;;;;;;30.85;17.48;;;;;;;0.90;45.13;94973.13;5053284;28;20035;-82
2021/12/23 12:09:20;;;;;;;39.35;18.70;;;;;;;1.01;44.67;94979.03;5053335;28;20442;-83
2021/12/23 12:12:04;;;;;;;41.30;19.27;;;;;;;1.15;45.45;94978.00;5052111;28;20374;-82
2021/12/23 12:14:36;;;;;;;47.88;18.70;;;;;;;1.24;44.35;94974.75;5053126;28;20094;-83
2021/12/23 12:17:23;;;;;;;42.05;17.90;;;;;;;0.99;45.03;94973.34;5052843;28;20059;-81
2021/12/23 12:20:34;;;;;;;35.55;17.80;;;;;;;0.87;46.28;94964.03;5053339;28;20029;-84
2021/12/23 12:23:11;;;;;;;42.28;18.52;;;;;;;0.86;45.42;94973.22;5052222;28;20082;-83
2021/12/23 12:25:44;;;;;;;45.22;19.40;;;;;;;1.06;45.00;94969.78;5053749;28;20025;-81
2021/12/23 12:28:13;;;;;;;40.45;18.58;;;;;;;0.93;45.03;94964.31;5053876;28;20437;-82
2021/12/23 12:30:42;;;;;;;39.55;17.92;;;;;;;1.18;45.33;94961.88;5053407;28;20036;-83
2021/12/23 12:33:33;;;;;;;39.30;19.38;;;;;;;1.29;44.82;94961.63;5053589;28;20029;-83
2021/12/23 12:36:01;;;;;;;45.70;18.67;;;;;;;0.60;45.48;94956.13;5053998;28;20472;-80
2021/12/23 12:38:29;;;;;;;41.33;18.35;;;;;;;0.49;46.41;94951.75;5053840;28;20063;-84
2021/12/23 12:40:54;;;;;;;37.55;18.17;;;;;;;0.73;45.23;94951.69;5061646;28;20035;-81
2021/12/23 12:43:34;;;;;;;33.58;18.15;;;;;;;0.45;45.55;94959.09;5067861;28;20088;-80
2021/12/23 12:46:01;;;;;;;35.15;16.80;;;;;;;0.36;46.32;94945.50;5053750;28;20087;-83
2021/12/23 12:48:55;;;;;;;32.03;17.40;;;;;;;0.64;45.21;94946.91;5056189;28;20045;-79
2021/12/23 12:51:24;;;;;;;32.38;15.73;;;;;;;0.02;46.62;94946.47;5054079;28;20043;-81
2021/12/23 12:54:05;;;;;;;34.45;14.98;;;;;;;0.03;46.59;94947.22;5052812;28;20432;-80
2021/12/23 12:56:34;;;;;;;33.42;14.45;;;;;;;0.11;46.22;94944.03;5052286;28;20505;-81
2021/12/23 12:59:00;;;;;;;29.08;13.93;;;;;;;0.08;47.03;94947.53;5057474;28;20102;-82
2021/12/23 13:01:42;;;;;;;29.42;14.80;;;;;;;0.42;45.29;94948.47;5060429;28;20029;-84
2021/12/23 13:04:26;;;;;;;30.95;12.75;;;;;;;0.36;45.50;94952.78;5053653;28;20453;-83
2021/12/23 13:06:54;;;;;;;33.25;13.18;;;;;;;0.65;44.39;94950.31;5057322;28;20103;-85
2021/12/23 13:09:30;;;;;;;30.15;13.60;;;;;;;0.30;45.46;94944.47;5057780;28;20068;-84
2021/12/23 13:11:59;;;;;;;31.10;12.90;;;;;;;0.41;46.32;94942.38;5057068;28;20032;-84
2021/12/23 13:14:55;;;;;;;29.17;12.95;;;;;;;0.22;46.76;94938.50;5056402;28;20489;-84
2021/12/23 13:17:43;;;;;;;29.42;13.60;;;;;;;0.19;47.10;94943.91;5057694;28;20430;-84
2021/12/23 13:20:09;;;;;;;28.08;13.55;;;;;;;0.32;47.01;94936.81;5057327;28;20461;-84
2021/12/23 13:22:35;;;;;;;28.83;14.07;;;;;;;0.47;46.53;94938.06;5056854;28;20020;-84
2021/12/23 13:25:03;;;;;;;27.65;13.35;;;;;;;0.27;46.70;94940.72;5057285;28;20094;-85
2021/12/23 13:27:29;;;;;;;30.48;12.68;;;;;;;0.00;47.25;94932.78;5056864;28;20104;-84
2021/12/23 13:30:06;;;;;;;32.72;13.98;;;;;;;0.26;47.30;94943.78;5057079;28;20242;-84
2021/12/23 13:32:32;;;;;;;21.27;12.35;;;;;;;0.29;46.64;94937.63;5057680;28;20090;-85
2021/12/23 13:35:13;;;;;;;29.65;12.20;;;;;;;0.06;48.11;94933.06;5059320;28;20025;-85
2021/12/23 13:37:46;;;;;;;28.63;13.85;;;;;;;-0.03;47.22;94933.59;5062916;28;20085;-85
2021/12/23 13:40:24;;;;;;;36.03;17.10;;;;;;;-0.59;48.17;94929.47;5062646;28;20025;-86
2021/12/23 13:42:50;;;;;;;38.72;16.73;;;;;;;-0.49;48.79;94929.72;5057428;28;20110;-84
2021/12/23 13:45:15;;;;;;;33.10;16.08;;;;;;;-0.62;48.79;94927.63;5057090;28;20029;-85
2021/12/23 13:47:41;;;;;;;40.42;14.98;;;;;;;-0.76;49.32;94944.59;5055733;28;20075;-82
2021/12/23 13:50:08;;;;;;;38.97;15.98;;;;;;;-0.82;49.88;94943.50;5055940;28;20032;-83
2021/12/23 13:52:34;;;;;;;50.22;17.85;;;;;;;-0.56;49.38;94942.03;5055411;28;20024;-83
2021/12/23 13:55:06;;;;;;;38.15;16.70;;;;;;;-0.85;50.22;94941.66;5055901;28;20036;-82
2021/12/23 13:57:41;;;;;;;41.58;17.48;;;;;;;-1.11;50.59;94940.47;5065809;28;20021;-79
2021/12/23 14:00:15;;;;;;;44.50;18.33;;;;;;;-1.20;51.77;94939.06;5057952;28;20510;-82
2021/12/23 14:02:42;;;;;;;42.15;16.98;;;;;;;-0.77;50.99;94931.66;5054447;28;20017;-83
2021/12/23 14:05:09;;;;;;;38.08;17.25;;;;;;;-1.06;51.78;94934.72;5055595;28;20086;-81
2021/12/23 14:07:39;;;;;;;42.70;17.70;;;;;;;-1.12;51.94;94933.63;5054374;28;20377;-80
2021/12/23 14:10:16;;;;;;;48.95;18.08;;;;;;;-0.94;52.05;94923.50;5054007;28;20048;-78
2021/12/23 14:12:56;;;;;;;48.75;19.33;;;;;;;-0.91;51.42;94916.63;5054940;28;20087;-79